Startpagina
METAR-TAF:

METAR-TAF

Vliegvelden :

Luchthaven van Praag

Praag, Tsjechië

breedte: 50-06N, lengte: 014-15E, hoogte: 365 m

Actueel weer

Dit bericht is 21 minuten geleden gemaakt, om 08:00 UTC
Wind 6 kt uit het zuidzuidwesten
Temperatuur 11°C
Vochtigheid 71%
Druk 1027 hPa
Zicht 10 km of meer
geen wolken onder 1500 m en geen cumulonimbus

METAR: LKPR 230800Z 21006KT CAVOK 11/06 Q1027 NOSIG

Tijdstip: 09:21 (08:21 UTC)

Verwachting

Dit bericht is 3 uur en het 21 minuten geleden gemaakt, om 05:00 UTC
Verwachting geldig van 23 om 06 UTC tot 24 om 12 UTC
Wind 4 kt uit het zuiden
Zicht 10 km of meer
geen wolken onder 1500 m en geen cumulonimbus
Tijdelijke
van 23 om 06 UTC tot 23 om 07 UTC
Zicht: 5000 m
nevel
Wijzigt naar
van 23 om 11 UTC tot 23 om 13 UTC
Wind 8 kt uit het noorden
Wijzigt naar
van 24 om 02 UTC tot 24 om 04 UTC
Zicht 10 km of meer
Gebroken wolken op 4000 ft

TAF: LKPR 230500Z 2306/2412 18004KT CAVOK TEMPO 2306/2307 5000 BR NSC BECMG 2311/2313 01008KT BECMG 2402/2404 9999 BKN040

Waarnemingen en weersverwachtingen van meer dan 4000 vliegvelden (METAR en TAF).

De beschikbare stations zijn de gele en rode punten op de kaart.

Ga met uw muis naar het station om de naam te zien.

Klik dan om waarnemingen en weersverwachtingen te zien.

kaart wijzigen: klik op de groene knoppen met een zwart kruis om in te zoomen, op de groene knop met een streepje om uit te zoomen of op de groene pijlen voor aangrenzende kaarten.


METAR-TAF: